createdAt,value
2019-05-10T00:00:13.661Z,16.30
2019-05-10T00:05:26.505Z,11.77
2019-05-10T00:10:20.370Z,16.47
2019-05-10T00:15:16.449Z,14.63
2019-05-10T00:20:10.510Z,16.10
2019-05-10T00:25:05.464Z,16.50
2019-05-10T00:29:59.513Z,17.03
2019-05-10T00:34:53.474Z,18.20
2019-05-10T00:39:47.431Z,13.57
2019-05-10T00:44:41.543Z,12.17
2019-05-10T00:49:35.497Z,12.20
2019-05-10T00:54:29.464Z,14.33
2019-05-10T00:59:23.423Z,10.97
2019-05-10T01:04:17.396Z,11.47
2019-05-10T01:09:12.879Z,8.63
2019-05-10T01:14:06.845Z,10.73
2019-05-10T01:19:00.833Z,11.23
2019-05-10T01:23:54.790Z,11.80
2019-05-10T01:28:48.817Z,13.63
2019-05-10T01:33:42.736Z,12.87
2019-05-10T01:38:36.802Z,8.57
2019-05-10T01:43:30.761Z,12.87
2019-05-10T01:48:24.771Z,9.70
2019-05-10T01:53:18.717Z,10.80
2019-05-10T01:58:12.676Z,12.40
2019-05-10T02:03:06.637Z,9.70
2019-05-10T02:08:00.635Z,11.17
2019-05-10T02:12:54.584Z,10.33
2019-05-10T02:17:48.548Z,9.07
2019-05-10T02:22:42.564Z,12.73
2019-05-10T02:27:36.499Z,11.40
2019-05-10T02:32:30.447Z,11.97
2019-05-10T02:37:24.430Z,10.63
2019-05-10T02:42:18.422Z,11.53
2019-05-10T02:47:12.485Z,10.47
2019-05-10T02:52:06.450Z,10.30
2019-05-10T02:57:01.012Z,12.53
2019-05-10T03:01:55.489Z,12.10
2019-05-10T03:06:53.313Z,9.80
2019-05-10T03:11:48.267Z,15.97
2019-05-10T03:16:45.029Z,14.07
2019-05-10T03:21:40.901Z,11.57
2019-05-10T03:26:50.294Z,11.67
2019-05-10T03:31:32.143Z,10.17
2019-05-10T03:36:26.102Z,12.77
2019-05-10T03:41:20.246Z,13.77
2019-05-10T03:46:14.183Z,18.20
2019-05-10T03:51:08.324Z,17.63
2019-05-10T03:56:02.509Z,20.17
2019-05-10T04:00:56.442Z,20.70
2019-05-10T04:05:50.473Z,21.93
2019-05-10T04:10:44.732Z,21.10
2019-05-10T04:15:38.691Z,23.30
2019-05-10T04:20:32.669Z,30.70
2019-05-10T04:25:26.649Z,23.40
2019-05-10T04:30:20.704Z,23.80
2019-05-10T04:35:14.793Z,23.17
2019-05-10T04:40:08.944Z,26.53
2019-05-10T04:45:04.524Z,23.00
2019-05-10T04:49:58.489Z,24.50
2019-05-10T04:54:52.464Z,28.53
2019-05-10T04:59:46.434Z,29.33
2019-05-10T05:04:40.437Z,29.43
2019-05-10T05:09:34.491Z,32.17
2019-05-10T05:14:28.460Z,31.77
2019-05-10T05:19:22.458Z,35.20
2019-05-10T05:24:16.826Z,28.67
2019-05-10T05:29:12.337Z,31.07
2019-05-10T05:34:06.427Z,29.27
2019-05-10T05:39:00.468Z,30.93
2019-05-10T05:43:54.526Z,31.57
2019-05-10T05:48:51.414Z,32.57
2019-05-10T05:53:44.783Z,29.90
2019-05-10T05:58:44.688Z,33.23
2019-05-10T06:03:34.799Z,30.00
2019-05-10T06:08:30.276Z,32.63
2019-05-10T06:13:30.454Z,38.07
2019-05-10T06:18:20.257Z,34.00
2019-05-10T06:23:14.250Z,34.73
2019-05-10T06:28:25.153Z,30.90
2019-05-10T06:33:12.533Z,32.90
2019-05-10T06:38:00.057Z,36.30
2019-05-10T06:42:54.164Z,36.87
2019-05-10T06:47:50.344Z,31.00
2019-05-10T06:52:44.125Z,36.47
2019-05-10T06:57:38.073Z,37.23
2019-05-10T07:02:32.610Z,38.53
2019-05-10T07:07:43.197Z,39.10
2019-05-10T07:12:22.717Z,40.07
2019-05-10T07:17:16.675Z,36.67
2019-05-10T07:22:10.765Z,34.83
2019-05-10T07:27:05.784Z,41.97
2019-05-10T07:32:00.100Z,29.07
2019-05-10T07:36:54.067Z,30.13
2019-05-10T07:41:48.024Z,20.90
2019-05-10T07:46:46.591Z,20.30
2019-05-10T07:51:37.920Z,23.57
2019-05-10T07:56:32.041Z,23.90
2019-05-10T08:01:32.475Z,14.20
2019-05-10T08:06:21.985Z,16.60
2019-05-10T08:11:15.972Z,18.20
2019-05-10T08:16:16.786Z,17.93
2019-05-10T08:21:20.990Z,17.53
2019-05-10T08:26:04.458Z,19.23
2019-05-10T08:30:58.998Z,23.73
2019-05-10T08:36:00.803Z,19.53
2019-05-10T08:40:49.225Z,21.03
2019-05-10T08:45:44.866Z,31.63
2019-05-10T08:50:49.308Z,29.30
2019-05-10T08:55:34.961Z,31.03
2019-05-10T09:00:45.142Z,31.27
2019-05-10T09:05:29.001Z,31.40
2019-05-10T09:10:22.050Z,31.13
2019-05-10T09:15:16.269Z,35.17
2019-05-10T09:20:11.981Z,35.37
2019-05-10T09:25:07.004Z,31.33
2019-05-10T09:30:02.978Z,31.73
2019-05-10T09:34:59.845Z,29.57
2019-05-10T09:40:04.038Z,27.57
2019-05-10T09:44:48.974Z,28.13
2019-05-10T09:49:46.907Z,24.13
2019-05-10T09:54:38.826Z,24.03
2019-05-10T09:59:32.800Z,28.77
2019-05-10T10:04:28.160Z,28.07
2019-05-10T10:09:24.528Z,27.50
2019-05-10T10:14:18.206Z,24.13
2019-05-10T10:19:12.175Z,27.47
2019-05-10T10:24:15.513Z,31.00
2019-05-10T10:29:02.311Z,29.70
2019-05-10T10:33:59.462Z,27.10
2019-05-10T10:38:52.217Z,24.40
2019-05-10T10:43:48.445Z,22.63
2019-05-10T10:48:43.498Z,23.93
2019-05-10T10:53:38.281Z,29.53
2019-05-10T10:58:32.324Z,24.17
2019-05-10T11:03:30.356Z,27.10
2019-05-10T11:08:22.277Z,22.53
2019-05-10T11:13:20.501Z,22.03
2019-05-10T11:18:12.131Z,21.57
2019-05-10T11:23:06.102Z,25.23
2019-05-10T11:28:01.750Z,21.43
2019-05-10T11:32:56.118Z,23.03
2019-05-10T11:37:50.840Z,26.53
2019-05-10T11:42:47.441Z,25.27
2019-05-10T11:47:41.131Z,23.43
2019-05-10T11:52:36.608Z,16.57
2019-05-10T11:57:32.898Z,21.53
2019-05-10T12:02:37.921Z,19.67
2019-05-10T12:07:27.380Z,16.77
2019-05-10T12:12:30.523Z,16.07
2019-05-10T12:17:14.565Z,13.37
2019-05-10T12:22:08.596Z,13.10
2019-05-10T12:27:25.728Z,13.80
2019-05-10T12:31:58.668Z,8.63
2019-05-10T12:36:52.757Z,9.38
2019-05-10T12:41:49.948Z,8.30
2019-05-10T12:46:44.452Z,5.70
2019-05-10T12:51:40.897Z,5.70
2019-05-10T12:56:34.940Z,5.25
2019-05-10T13:01:31.789Z,4.55
2019-05-10T13:06:26.338Z,6.00
2019-05-10T13:11:25.329Z,5.20
2019-05-10T13:16:16.247Z,4.95
2019-05-10T13:21:19.492Z,4.28
2019-05-10T13:26:06.177Z,3.37
2019-05-10T13:31:05.691Z,2.80
2019-05-10T13:35:57.047Z,4.03
2019-05-10T13:40:52.024Z,5.15
2019-05-10T13:45:46.101Z,4.85
2019-05-10T13:50:40.080Z,4.70
2019-05-10T13:55:34.046Z,5.25
2019-05-10T14:00:34.154Z,4.20
2019-05-10T14:05:24.210Z,5.28
2019-05-10T14:10:23.628Z,5.45
2019-05-10T14:15:14.565Z,5.50
2019-05-10T14:20:19.571Z,4.03
2019-05-10T14:25:05.614Z,4.90
2019-05-10T14:29:59.623Z,4.15
2019-05-10T14:34:53.642Z,6.33
2019-05-10T14:39:47.631Z,6.35
2019-05-10T14:44:41.647Z,7.40
2019-05-10T14:49:35.668Z,7.10
2019-05-10T14:54:42.722Z,7.37
2019-05-10T14:59:25.865Z,7.25
2019-05-10T15:04:43.691Z,9.10
2019-05-10T15:09:21.722Z,8.30
2019-05-10T15:14:11.883Z,6.28
2019-05-10T15:19:05.995Z,8.60
2019-05-10T15:24:00.828Z,8.25
2019-05-10T15:28:55.941Z,7.28
2019-05-10T15:33:49.923Z,8.68
2019-05-10T15:38:50.118Z,7.22
2019-05-10T15:43:40.055Z,7.87
2019-05-10T15:48:36.646Z,7.08
2019-05-10T15:53:30.101Z,8.35
2019-05-10T15:58:24.065Z,10.20
2019-05-10T16:03:18.265Z,9.28
2019-05-10T16:08:13.767Z,10.03
2019-05-10T16:13:07.896Z,9.10
2019-05-10T16:18:02.029Z,11.53
2019-05-10T16:22:56.055Z,9.98
2019-05-10T16:27:50.060Z,10.60
2019-05-10T16:32:45.950Z,20.10
2019-05-10T16:37:39.940Z,16.63
2019-05-10T16:42:35.810Z,15.97
2019-05-10T16:47:29.824Z,23.03
2019-05-10T16:52:26.169Z,16.42
2019-05-10T16:57:19.670Z,27.70
2019-05-10T17:02:13.747Z,22.87
2019-05-10T17:07:12.865Z,24.13
2019-05-10T17:12:03.920Z,21.30
2019-05-10T17:16:59.797Z,22.80
2019-05-10T17:21:53.870Z,24.05
2019-05-10T17:26:47.841Z,22.73
2019-05-10T17:31:45.775Z,20.37
2019-05-10T17:36:37.711Z,20.70
2019-05-10T17:41:31.817Z,20.90
2019-05-10T17:46:25.869Z,19.40
2019-05-10T17:51:19.978Z,20.53
2019-05-10T17:56:13.950Z,19.32
2019-05-10T18:01:08.065Z,20.07
2019-05-10T18:06:02.728Z,15.47
2019-05-10T18:11:03.385Z,18.03
2019-05-10T18:15:52.710Z,16.40
2019-05-10T18:20:46.675Z,17.93
2019-05-10T18:25:40.724Z,21.17
2019-05-10T18:30:34.689Z,19.17
2019-05-10T18:35:28.673Z,20.93
2019-05-10T18:40:25.152Z,21.40
2019-05-10T18:45:23.237Z,19.73
2019-05-10T18:50:14.771Z,20.07
2019-05-10T18:55:08.938Z,20.00
2019-05-10T19:00:05.093Z,25.20
2019-05-10T19:04:59.233Z,29.07
2019-05-10T19:09:53.367Z,29.80
2019-05-10T19:14:47.347Z,34.97
2019-05-10T19:19:42.237Z,26.73
2019-05-10T19:24:36.602Z,29.57
2019-05-10T19:29:30.578Z,26.20
2019-05-10T19:34:24.663Z,26.73
2019-05-10T19:39:18.671Z,26.03
2019-05-10T19:44:12.668Z,22.97
2019-05-10T19:49:12.935Z,23.80
2019-05-10T19:54:03.029Z,25.33
2019-05-10T19:58:57.195Z,28.00
2019-05-10T20:03:51.264Z,27.73
2019-05-10T20:08:45.288Z,26.70
2019-05-10T20:13:39.371Z,24.73
2019-05-10T20:18:33.410Z,29.47
2019-05-10T20:23:27.394Z,30.13
2019-05-10T20:28:21.875Z,28.53
2019-05-10T20:33:15.881Z,27.70
2019-05-10T20:38:09.988Z,26.53
2019-05-10T20:43:04.112Z,28.60
2019-05-10T20:47:58.211Z,30.53
2019-05-10T20:52:52.173Z,28.33
2019-05-10T20:57:46.189Z,31.37
2019-05-10T21:02:40.262Z,27.00
2019-05-10T21:07:34.532Z,27.33
2019-05-10T21:12:28.529Z,28.77
2019-05-10T21:17:22.504Z,26.30
2019-05-10T21:22:16.619Z,32.17
2019-05-10T21:27:10.597Z,27.87
2019-05-10T21:32:04.695Z,30.00
2019-05-10T21:36:58.706Z,32.67
2019-05-10T21:41:52.916Z,28.57
2019-05-10T21:46:46.908Z,29.93
2019-05-10T21:51:40.903Z,30.90
2019-05-10T21:56:35.858Z,28.97
2019-05-10T22:01:30.746Z,31.10
2019-05-10T22:06:24.729Z,27.10
2019-05-10T22:11:18.735Z,28.73
2019-05-10T22:16:12.812Z,27.83
2019-05-10T22:21:06.919Z,30.53
2019-05-10T22:26:00.902Z,26.13
2019-05-10T22:30:54.858Z,27.03
2019-05-10T22:35:49.001Z,26.10
2019-05-10T22:40:43.158Z,26.67
2019-05-10T22:45:37.099Z,26.33
2019-05-10T22:50:31.117Z,35.97
2019-05-10T22:55:25.047Z,48.97
2019-05-10T23:00:19.907Z,34.23
2019-05-10T23:05:14.101Z,32.10
2019-05-10T23:10:08.397Z,25.83
2019-05-10T23:15:04.440Z,31.20
2019-05-10T23:19:58.545Z,31.20
2019-05-10T23:24:52.511Z,42.23
2019-05-10T23:29:46.575Z,32.07
2019-05-10T23:34:40.531Z,29.93
2019-05-10T23:39:40.970Z,29.03
2019-05-10T23:44:30.494Z,33.60
2019-05-10T23:49:24.515Z,29.57
2019-05-10T23:54:18.492Z,32.27
2019-05-10T23:59:12.561Z,31.67
